Wetterstation:     Jahr:     Auswahl:
Download: tageswerte-erbach-2024.csv
 
 
Datum
Temp. 2 m
Mittel
[⁰C]
Temp. 2 m
Maximum
[⁰C]
Temp. 2 m
Minimum
[⁰C]
rel. Feuchte
Mittel
[%]
Wind
Mittel
[m/s]
Regen
Summe
[mm]
Strahlung
Summe
[Wh/m²]
Bogrebe
Minimum
[⁰C]
01.01.2024 6,9 9,2 5,1 84,5 1,0 0,4 593,7 4,8
02.01.2024 8,5 10,7 6,1 91,3 2,0 11,1 221,5 5,8
03.01.2024 10,1 13,7 7,8 81,0 1,8 4,9 898,4 7,6
04.01.2024 8,3 11,2 4,4 80,0 1,6 0,2 659,1 3,9
05.01.2024 5,7 10,3 1,7 86,2 0,7 0,0 635,4 1,0
06.01.2024 4,8 6,7 1,7 87,8 0,6 0,9 327,6 1,1
07.01.2024 2,2 4,2 -1,3 78,3 2,3 0,0 534,5 -1,5
08.01.2024 -1,8 0,3 -5,1 62,4 2,2 0,0 869,8 -5,5
09.01.2024 -2,8 2,5 -7,2 53,0 1,3 0,0 1365,8 -7,9
10.01.2024 -3,6 0,8 -6,3 65,4 0,9 0,0 1240,7 -7,0
11.01.2024 -2,9 5,0 -7,4 78,2 0,5 0,0 1640,0 -8,0
12.01.2024 -0,8 0,0 -3,4 85,0 0,9 0,0 424,3 -4,4
13.01.2024 0,5 1,4 -0,4 83,8 1,0 0,0 232,3 -0,7
14.01.2024 -0,6 0,5 -1,9 82,9 1,3 0,0 691,2 -2,0
15.01.2024 0,4 2,4 -2,0 79,4 1,6 0,5 663,8 -2,1
16.01.2024 -0,3 5,2 -5,4 75,9 0,9 0,0 1248,4 -5,9
17.01.2024 -2,4 0,4 -5,9 92,2 0,6 13,7 285,6 -6,5
18.01.2024 -0,2 3,1 -3,0 87,2 1,0 5,1 552,8 -3,6
19.01.2024 -2,5 3,1 -6,7 86,5 0,9 0,0 1521,5 -7,8
20.01.2024 -5,9 -4,8 -7,7 93,2 0,7 0,0 423,0 -7,7
21.01.2024 -3,5 0,7 -7,4 88,6 0,6 0,0 1010,3 -7,4
22.01.2024 5,0 7,9 0,7 89,9 0,9 1,2 224,4 0,5
23.01.2024 6,7 9,7 3,3 82,7 1,4 6,6 1019,8 2,4
24.01.2024 10,5 14,0 5,3 74,2 2,6 0,3 962,8 4,3
25.01.2024 7,9 12,0 4,1 80,8 0,6 0,3 1422,8 3,4
26.01.2024 8,0 12,3 6,0 83,6 1,3 1,5 639,0 5,1
27.01.2024 3,1 10,9 -1,5 78,1 0,7 0,0 1782,9 -2,2
28.01.2024 1,1 9,6 -3,0 85,7 0,5 0,1 1803,4 -3,3
29.01.2024 2,1 9,5 -2,2 87,0 0,4 0,0 1691,8 -2,9
30.01.2024 2,8 6,6 -1,2 92,8 0,3 0,0 916,0 -2,0
31.01.2024 5,8 11,0 0,5 80,1 0,8 0,1 1287,1 -0,4
01.02.2024 6,3 11,4 0,8 80,7 1,5 2,8 1738,5 -0,3
02.02.2024 5,7 11,2 1,0 79,7 1,0 0,0 1626,2 0,3
03.02.2024 9,2 11,5 7,7 80,9 1,2 0,0 821,5 7,4
04.02.2024 10,3 11,9 8,7 81,9 1,6 0,1 551,6 8,4
05.02.2024 9,8 14,1 5,4 76,7 1,5 0,1 2050,5 4,9
06.02.2024 8,5 9,9 7,0 79,6 1,6 0,0 472,5 6,8
07.02.2024 7,8 11,3 3,7 88,7 1,5 13,5 331,0 3,6
08.02.2024 5,7 9,0 3,8 97,5 0,5 11,7 418,7 3,8
09.02.2024 10,3 13,6 7,7 91,3 0,5 3,8 516,7 7,2
10.02.2024 10,2 12,8 8,5 92,5 0,7 1,1 1028,3 8,0
11.02.2024 8,8 12,2 7,7 87,4 0,8 0,5 968,4 7,4
12.02.2024 8,0 11,6 3,9 82,5 1,0 0,4 1209,7 3,1
13.02.2024 5,5 11,1 0,5 81,3 0,7 0,0 2049,9 -0,3
14.02.2024 8,4 11,4 5,3 90,1 0,4 3,9 618,1 4,9
15.02.2024 10,7 14,5 8,3 90,8 0,4 0,1 1466,2 7,8
16.02.2024 11,3 16,6 8,3 89,2 0,4 3,6 1195,5 7,8
17.02.2024 10,4 13,7 6,5 84,2 0,7 0,0 1369,8 5,7
18.02.2024 7,3 10,7 4,3 90,1 0,7 2,3 1036,6 3,4
19.02.2024 10,4 14,5 7,8 77,3 1,6 0,2 1690,8 7,4
20.02.2024 8,7 11,8 5,8 76,7 1,1 0,1 1861,4 5,4
21.02.2024 8,1 10,9 4,9 80,3 0,8 2,6 1590,5 4,3